Terminal Aerodrome Forecast
Issued by NWS

Home | Current Version | Previous Version | Text Only | Print | Product List | Glossary On
Versions: 1 2 3 4 5 6 7 8 9 10 11 12 13 14 15 16 17 18 19
000
FTUS46 KHNX 191751
TAFMER
TAF
KMER 191751Z 1918/2018 15010G18KT P6SM VCSH SCT035 BKN050
     FM200400 14007KT 4SM BR OVC050
     FM200900 13015G21KT 6SM -RA BR OVC050
      TEMPO 2014/2018 13020G30KT 2SM RA BR OVC030=

USA.gov is the U.S. government's official web portal to all federal, state and local government web resources and services.